Time;durP1;ratioP1;P1;durP2;ratioP2;P2;SDS_P1;SDS_P2;PMS_P1;PMS_P2;Temp;Humidity;BMP_temperature;BMP_pressure;BME280_temperature;BME280_humidity;BME280_pressure;Samples;Min_cycle;Max_cycle;Signal;HPM_P1;HPM_P2
2021/05/22 00:01:21;;;;;;;;;3.00;3.00;;;;;20.03;35.82;98063.34;4992294;28;8795;-44
2021/05/22 00:03:46;;;;;;;;;3.00;3.00;;;;;20.16;36.00;98077.59;4998361;28;8807;-44
2021/05/22 00:06:11;;;;;;;;;2.75;2.75;;;;;20.13;35.97;98083.03;5004314;28;8827;-43
2021/05/22 00:08:37;;;;;;;;;2.50;2.50;;;;;20.10;36.14;98081.78;4998802;28;8796;-43
2021/05/22 00:11:02;;;;;;;;;3.00;3.00;;;;;20.17;35.88;98081.13;5002948;28;8915;-43
2021/05/22 00:13:27;;;;;;;;;2.00;2.00;;;;;20.40;35.27;98070.88;5009594;28;9823;-44
2021/05/22 00:15:52;;;;;;;;;2.25;2.25;;;;;20.23;35.64;98080.44;5008571;28;8824;-44
2021/05/22 00:18:18;;;;;;;;;2.50;2.50;;;;;20.09;35.77;98068.47;5005733;28;9574;-43
2021/05/22 00:20:43;;;;;;;;;3.00;3.00;;;;;20.09;35.83;98082.97;5003704;28;8787;-43
2021/05/22 00:23:10;;;;;;;;;4.00;4.00;;;;;19.99;36.15;98078.13;5004969;28;9505;-44
2021/05/22 00:25:36;;;;;;;;;3.00;3.00;;;;;19.95;36.23;98080.81;5007168;28;8756;-44
2021/05/22 00:28:01;;;;;;;;;2.00;2.00;;;;;19.93;36.18;98074.13;4997384;28;8832;-44
2021/05/22 00:30:27;;;;;;;;;2.25;2.25;;;;;19.91;36.19;98088.19;5000172;28;9473;-44
2021/05/22 00:32:52;;;;;;;;;2.00;2.00;;;;;19.88;36.24;98080.72;4986233;28;8799;-43
2021/05/22 00:35:17;;;;;;;;;2.50;2.50;;;;;19.85;36.30;98082.22;4981050;28;8963;-44
2021/05/22 00:37:43;;;;;;;;;3.75;3.75;;;;;19.83;36.46;98086.50;4985871;28;8846;-43
2021/05/22 00:40:09;;;;;;;;;2.75;2.75;;;;;19.54;36.46;98036.81;4990090;28;8826;-43
2021/05/22 00:42:37;;;;;;;;;2.20;2.20;;;;;19.76;36.58;98080.91;4985892;28;8819;-44
2021/05/22 00:45:13;;;;;;;;;2.00;2.00;;;;;19.97;36.16;98073.03;5000976;28;8978;-44
2021/05/22 00:47:41;;;;;;;;;3.00;3.00;;;;;19.95;36.01;98075.34;5006678;28;8769;-43
2021/05/22 00:50:10;;;;;;;;;2.40;2.40;;;;;19.80;36.27;98068.84;4996944;28;8937;-44
2021/05/22 00:52:35;;;;;;;;;3.00;3.00;;;;;19.77;36.32;98066.06;5004903;28;8815;-44
2021/05/22 00:55:02;;;;;;;;;3.00;3.00;;;;;19.79;36.54;98071.97;5009479;28;8933;-44
2021/05/22 00:57:27;;;;;;;;;2.80;2.80;;;;;19.78;36.43;98062.19;5006051;28;8824;-42
2021/05/22 00:59:53;;;;;;;;;3.00;3.00;;;;;19.76;36.29;98059.81;5006003;28;8780;-42
2021/05/22 01:02:24;;;;;;;;;2.00;2.00;;;;;19.51;36.58;98032.06;5008149;28;8831;-42
2021/05/22 01:04:51;;;;;;;;;1.60;1.60;;;;;19.65;36.58;98059.63;5003849;28;8777;-43
2021/05/22 01:07:18;;;;;;;;;3.00;3.00;;;;;19.62;36.81;98063.09;5005283;28;8812;-42
2021/05/22 01:09:47;;;;;;;;;2.60;2.60;;;;;19.61;36.79;98061.53;5008500;28;8788;-42
2021/05/22 01:12:14;;;;;;;;;3.00;3.00;;;;;19.61;36.79;98058.78;5003579;28;8816;-43
2021/05/22 01:14:52;;;;;;;;;2.40;2.40;;;;;19.60;36.70;98062.66;5005209;28;8874;-42
2021/05/22 01:17:19;;;;;;;;;2.00;2.00;;;;;19.71;36.53;98056.56;5004413;28;9556;-42
2021/05/22 01:19:57;;;;;;;;;2.00;2.00;;;;;19.84;36.23;98055.22;5002127;28;8764;-42
2021/05/22 01:22:26;;;;;;;;;2.80;2.80;;;;;19.68;36.67;98075.31;4994713;28;8798;-41
2021/05/22 01:25:14;;;;;;;;;2.40;2.40;;;;;19.64;36.67;98062.72;5008807;28;8978;-42
2021/05/22 01:27:40;;;;;;;;;2.20;2.20;;;;;19.62;36.61;98056.84;4999613;28;8935;-42
2021/05/22 01:30:06;;;;;;;;;2.00;2.00;;;;;19.45;36.91;98038.97;5003840;28;9014;-42
2021/05/22 01:32:32;;;;;;;;;2.60;2.60;;;;;19.57;36.80;98059.88;5006871;28;9508;-42
2021/05/22 01:34:57;;;;;;;;;3.00;3.00;;;;;19.54;36.87;98058.69;5001691;28;8804;-42
2021/05/22 01:37:22;;;;;;;;;3.00;3.00;;;;;19.53;36.80;98059.03;4998084;28;8808;-42
2021/05/22 01:39:48;;;;;;;;;2.00;2.00;;;;;19.53;36.79;98056.31;5008816;28;9524;-42
2021/05/22 01:42:13;;;;;;;;;2.00;2.00;;;;;19.49;36.75;98054.28;4981388;28;8809;-42
2021/05/22 01:44:42;;;;;;;;;3.00;3.00;;;;;19.47;36.85;98053.06;4997572;28;8816;-42
2021/05/22 01:47:08;;;;;;;;;2.00;2.00;;;;;19.26;36.81;98031.63;5004848;28;8768;-42
2021/05/22 01:49:34;;;;;;;;;2.80;2.80;;;;;19.47;37.06;98058.53;5003900;28;8733;-42
2021/05/22 01:52:02;;;;;;;;;3.00;3.00;;;;;19.66;36.52;98058.47;5006230;28;8833;-41
2021/05/22 01:54:28;;;;;;;;;2.00;2.00;;;;;19.55;36.64;98059.47;5006498;28;8800;-42
2021/05/22 01:56:54;;;;;;;;;2.00;2.00;;;;;19.51;36.75;98055.84;5003245;28;8815;-42
2021/05/22 01:59:20;;;;;;;;;2.00;2.00;;;;;19.01;36.74;97976.56;5007171;28;8788;-42
2021/05/22 02:01:50;;;;;;;;;2.00;2.00;;;;;19.46;36.85;98063.22;5002713;28;8804;-42
2021/05/22 02:04:21;;;;;;;;;2.00;2.00;;;;;19.43;36.98;98063.94;5003721;28;11551;-42
2021/05/22 02:06:50;;;;;;;;;3.00;3.00;;;;;19.41;36.90;98049.84;4988817;28;8929;-42
2021/05/22 02:09:16;;;;;;;;;3.00;3.00;;;;;19.41;37.04;98054.53;5005215;28;8796;-42
2021/05/22 02:11:45;;;;;;;;;2.00;2.00;;;;;19.40;37.11;98052.97;5003035;28;8834;-42
2021/05/22 02:14:16;;;;;;;;;2.20;2.20;;;;;18.86;36.91;97970.88;5006181;28;8820;-42
2021/05/22 02:16:48;;;;;;;;;2.60;2.60;;;;;19.38;37.07;98055.28;5003462;28;8752;-42
2021/05/22 02:19:16;;;;;;;;;2.00;2.00;;;;;19.38;37.10;98063.47;5000650;28;9604;-42
2021/05/22 02:21:44;;;;;;;;;2.00;2.00;;;;;19.36;37.09;98061.09;5007307;28;8835;-42
2021/05/22 02:24:12;;;;;;;;;2.00;2.00;;;;;19.54;36.67;98046.94;4988028;28;8803;-42
2021/05/22 02:26:39;;;;;;;;;3.00;3.00;;;;;19.53;36.72;98046.16;4993098;28;8794;-42
2021/05/22 02:29:10;;;;;;;;;2.40;2.40;;;;;19.42;36.78;98047.94;4996685;28;8767;-42
2021/05/22 02:31:40;;;;;;;;;2.00;2.00;;;;;19.38;36.91;98045.13;5002578;28;8771;-42
2021/05/22 02:34:07;;;;;;;;;2.00;2.00;;;;;19.37;37.05;98043.56;5001427;28;8788;-42
2021/05/22 02:36:34;;;;;;;;;2.20;2.00;;;;;19.36;36.92;98041.19;4984032;28;8861;-41
2021/05/22 02:39:01;;;;;;;;;2.00;2.00;;;;;19.29;37.19;98041.84;4980387;28;8801;-42
2021/05/22 02:41:27;;;;;;;;;2.00;2.00;;;;;19.07;37.02;98002.44;4983333;28;8787;-42
2021/05/22 02:43:56;;;;;;;;;2.20;2.20;;;;;18.84;37.07;97975.91;4986132;28;8767;-42
2021/05/22 02:46:23;;;;;;;;;2.00;2.00;;;;;19.27;37.14;98034.00;4984028;28;8837;-42
2021/05/22 02:48:51;;;;;;;;;2.00;2.00;;;;;19.08;37.15;98015.75;4986433;28;8830;-42
2021/05/22 02:51:21;;;;;;;;;2.40;2.00;;;;;19.24;37.27;98042.97;4986741;28;8795;-42
2021/05/22 02:53:48;;;;;;;;;3.00;3.00;;;;;18.90;37.18;97992.78;4995118;28;8781;-43
2021/05/22 02:56:14;;;;;;;;;2.00;2.00;;;;;19.17;36.93;98022.91;5003408;28;8800;-42
2021/05/22 02:58:42;;;;;;;;;2.00;2.00;;;;;19.46;36.78;98046.03;5004966;28;8756;-42
2021/05/22 03:01:07;;;;;;;;;2.40;2.00;;;;;19.34;36.79;98046.22;5001662;28;8796;-42
2021/05/22 03:03:34;;;;;;;;;2.00;2.00;;;;;19.27;37.18;98052.38;5003742;28;8867;-42
2021/05/22 03:06:01;;;;;;;;;2.00;2.00;;;;;19.21;37.11;98049.16;5000482;28;8927;-42
2021/05/22 03:08:29;;;;;;;;;2.00;2.00;;;;;19.19;37.29;98056.13;5004329;28;8839;-43
2021/05/22 03:10:56;;;;;;;;;3.00;2.40;;;;;19.19;37.33;98053.38;5000566;28;8901;-42
2021/05/22 03:13:22;;;;;;;;;2.60;2.60;;;;;19.17;37.29;98053.78;5005719;28;8927;-42
2021/05/22 03:15:47;;;;;;;;;2.00;2.00;;;;;19.17;37.44;98044.75;5010919;28;8970;-42
2021/05/22 03:18:13;;;;;;;;;2.25;2.00;;;;;19.16;37.39;98046.72;4987775;28;9328;-42
2021/05/22 03:20:39;;;;;;;;;2.00;2.00;;;;;19.16;37.22;98048.66;5003166;28;8818;-41
2021/05/22 03:23:04;;;;;;;;;2.75;2.75;;;;;19.15;37.39;98056.06;5000250;28;9568;-42
2021/05/22 03:25:29;;;;;;;;;1.50;1.50;;;;;19.15;37.23;98047.06;5004811;28;8816;-42
2021/05/22 03:27:55;;;;;;;;;2.00;2.00;;;;;19.13;37.27;98043.91;5003321;28;8800;-43
2021/05/22 03:30:20;;;;;;;;;2.00;2.00;;;;;19.32;37.10;98041.13;5003508;28;9052;-42
2021/05/22 03:32:46;;;;;;;;;2.40;2.40;;;;;19.31;36.84;98039.53;4992907;28;8824;-42
2021/05/22 03:35:11;;;;;;;;;2.00;2.00;;;;;19.21;37.05;98040.94;4991262;28;9599;-43
2021/05/22 03:37:37;;;;;;;;;3.00;3.00;;;;;19.16;37.25;98040.47;5001700;28;8775;-42
2021/05/22 03:40:05;;;;;;;;;2.75;2.75;;;;;19.14;37.26;98045.47;5004758;28;11577;-42
2021/05/22 03:42:31;;;;;;;;;2.00;2.00;;;;;19.11;37.40;98036.09;4982521;28;9459;-42
2021/05/22 03:44:56;;;;;;;;;2.50;2.50;;;;;19.11;37.17;98041.53;4984868;28;8802;-42
2021/05/22 03:47:21;;;;;;;;;1.50;1.50;;;;;19.10;37.13;98039.97;4988399;28;9530;-42
2021/05/22 03:49:46;;;;;;;;;3.00;3.00;;;;;19.10;37.28;98045.41;4988855;28;8795;-42
2021/05/22 03:52:12;;;;;;;;;2.00;2.00;;;;;19.09;37.38;98038.41;5000589;28;8800;-41
2021/05/22 03:54:37;;;;;;;;;2.25;2.25;;;;;19.09;37.31;98038.41;4999714;28;8937;-43
2021/05/22 03:57:02;;;;;;;;;3.00;3.00;;;;;19.09;37.43;98039.19;5003176;28;8791;-42
2021/05/22 03:59:28;;;;;;;;;2.00;2.00;;;;;19.09;37.28;98043.88;5006273;28;8752;-42
2021/05/22 04:01:53;;;;;;;;;2.00;2.00;;;;;19.15;37.38;98039.66;5003252;28;8826;-42
2021/05/22 04:04:19;;;;;;;;;3.00;3.00;;;;;19.34;37.00;98049.75;4988073;28;8816;-42
2021/05/22 04:06:44;;;;;;;;;2.00;2.00;;;;;19.21;37.00;98049.16;4988830;28;8807;-42
2021/05/22 04:09:10;;;;;;;;;2.00;2.00;;;;;19.14;37.17;98046.28;4984230;28;8938;-42
2021/05/22 04:11:35;;;;;;;;;2.00;2.00;;;;;19.09;37.60;98044.63;4987155;28;8919;-42
2021/05/22 04:14:00;;;;;;;;;3.00;3.00;;;;;19.10;37.27;98045.41;4988988;28;8776;-42
2021/05/22 04:16:26;;;;;;;;;2.00;2.00;;;;;19.06;37.50;98044.59;4982387;28;8802;-42
2021/05/22 04:18:51;;;;;;;;;3.00;3.00;;;;;19.04;37.33;98052.34;4990562;28;8795;-42
2021/05/22 04:21:16;;;;;;;;;2.25;2.25;;;;;19.02;37.55;98044.53;4987094;28;8783;-42
2021/05/22 04:23:41;;;;;;;;;2.75;2.75;;;;;19.03;37.44;98045.31;4982698;28;8815;-42
2021/05/22 04:26:08;;;;;;;;;2.75;2.75;;;;;19.02;37.34;98047.25;4985403;28;8900;-42
2021/05/22 04:28:33;;;;;;;;;2.00;2.00;;;;;18.89;37.39;98029.44;4985430;28;8747;-42
2021/05/22 04:30:58;;;;;;;;;2.50;2.50;;;;;19.00;37.35;98049.56;4985300;28;8837;-42
2021/05/22 04:33:24;;;;;;;;;2.50;2.50;;;;;19.03;37.57;98040.66;4987760;28;8811;-42
2021/05/22 04:35:49;;;;;;;;;2.00;2.00;;;;;19.16;37.42;98041.25;4986466;28;8830;-42
2021/05/22 04:38:15;;;;;;;;;2.50;2.50;;;;;19.23;37.54;98049.56;4982041;28;8779;-42
2021/05/22 04:40:41;;;;;;;;;2.00;2.00;;;;;19.40;35.40;98053.75;4984010;28;8893;-42
2021/05/22 04:43:06;;;;;;;;;2.20;2.20;;;;;19.52;34.71;98051.97;4980081;28;8779;-42
2021/05/22 04:45:32;;;;;;;;;2.75;2.75;;;;;19.50;34.22;98030.47;4975677;28;8823;-42
2021/05/22 04:47:57;;;;;;;;;1.50;1.50;;;;;19.71;35.04;98051.88;4987000;28;8799;-41
2021/05/22 04:50:25;;;;;;;;;2.00;2.00;;;;;19.72;35.64;98052.66;4989908;28;8802;-42
2021/05/22 04:52:50;;;;;;;;;2.00;2.00;;;;;19.62;36.31;98060.34;4983998;28;8818;-42
2021/05/22 04:55:16;;;;;;;;;2.00;2.00;;;;;19.47;35.97;98066.75;4986572;28;8855;-42
2021/05/22 04:57:41;;;;;;;;;2.00;2.00;;;;;19.47;35.89;98069.47;4982119;28;8804;-42
2021/05/22 05:00:07;;;;;;;;;2.00;2.00;;;;;19.54;35.11;98058.69;4988411;28;8803;-42
2021/05/22 05:02:33;;;;;;;;;2.80;2.80;;;;;19.51;34.13;98044.91;4985526;28;8961;-42
2021/05/22 05:04:58;;;;;;;;;2.20;2.00;;;;;19.72;34.83;98061.69;4997937;28;8890;-42
2021/05/22 05:07:24;;;;;;;;;2.00;2.00;;;;;19.75;35.45;98076.59;5006090;28;9575;-42
2021/05/22 05:09:51;;;;;;;;;3.00;2.00;;;;;19.24;36.01;98007.44;5007259;28;9198;-42
2021/05/22 05:12:16;;;;;;;;;2.00;2.00;;;;;19.52;35.79;98071.91;5004231;28;8788;-42
2021/05/22 05:14:42;;;;;;;;;3.00;3.00;;;;;19.52;35.56;98077.38;5008149;28;8846;-42
2021/05/22 05:17:07;;;;;;;;;2.00;2.00;;;;;19.62;34.97;98078.72;4996974;28;8908;-42
2021/05/22 05:19:32;;;;;;;;;1.75;1.75;;;;;19.65;34.29;98072.53;4987693;28;8770;-42
2021/05/22 05:21:58;;;;;;;;;2.00;2.00;;;;;19.66;34.78;98054.94;5006887;28;8915;-41
2021/05/22 05:24:24;;;;;;;;;2.00;2.00;;;;;19.76;35.46;98065.28;5003548;28;8789;-42
2021/05/22 05:26:49;;;;;;;;;3.00;3.00;;;;;19.58;35.76;98048.56;5001730;28;8820;-42
2021/05/22 05:29:16;;;;;;;;;2.00;2.00;;;;;19.54;35.69;98075.09;5004680;28;8799;-42
2021/05/22 05:31:41;;;;;;;;;2.60;2.60;;;;;19.36;36.07;98068.53;5002004;28;11495;-42
2021/05/22 05:34:07;;;;;;;;;1.75;1.75;;;;;19.29;36.24;98078.19;5008222;28;8788;-42
2021/05/22 05:36:33;;;;;;;;;2.00;2.00;;;;;19.20;36.47;98050.28;5006171;28;9489;-42
2021/05/22 05:38:58;;;;;;;;;2.00;2.00;;;;;19.58;34.91;98075.16;5001300;28;8843;-42
2021/05/22 05:41:24;;;;;;;;;2.00;2.00;;;;;19.63;34.61;98074.81;5001406;28;8947;-42
2021/05/22 05:43:49;;;;;;;;;2.00;2.00;;;;;19.75;34.58;98074.66;5000860;28;8783;-42
2021/05/22 05:46:14;;;;;;;;;1.75;1.75;;;;;19.78;35.27;98073.91;4985166;28;9765;-42
2021/05/22 05:48:39;;;;;;;;;2.00;2.00;;;;;19.71;35.62;98070.25;5008043;28;9518;-42
2021/05/22 05:51:05;;;;;;;;;2.75;2.75;;;;;19.55;35.70;98068.44;5003684;28;8819;-42
2021/05/22 05:53:30;;;;;;;;;2.00;2.00;;;;;19.30;35.91;98060.63;4997391;28;8800;-42
2021/05/22 05:55:55;;;;;;;;;1.50;1.50;;;;;19.27;36.25;98066.81;5002142;28;8806;-42
2021/05/22 05:58:21;;;;;;;;;2.00;2.00;;;;;19.16;36.34;98059.59;5002140;28;9635;-42
2021/05/22 06:00:47;;;;;;;;;2.00;2.00;;;;;19.46;35.45;98074.16;5006213;28;8818;-43
2021/05/22 06:03:13;;;;;;;;;2.00;2.00;;;;;19.13;34.87;98011.13;4988122;28;8818;-42
2021/05/22 06:05:38;;;;;;;;;3.00;3.00;;;;;19.68;34.10;98086.25;4993082;28;8942;-42
2021/05/22 06:08:04;;;;;;;;;2.00;2.00;;;;;19.77;34.76;98079.75;5005664;28;11264;-42
2021/05/22 06:10:29;;;;;;;;;2.20;2.20;;;;;19.74;35.68;98075.81;5002512;28;8803;-42
2021/05/22 06:12:56;;;;;;;;;2.00;2.00;;;;;19.53;35.85;98048.88;5001851;28;8800;-42
2021/05/22 06:15:23;;;;;;;;;2.20;2.20;;;;;19.48;35.62;98079.28;5002617;28;9543;-42
2021/05/22 06:17:52;;;;;;;;;1.80;1.80;;;;;19.33;36.15;98083.72;4996259;28;8918;-42
2021/05/22 06:20:17;;;;;;;;;1.20;1.20;;;;;19.24;36.20;98081.22;4998136;28;8799;-42
2021/05/22 06:22:43;;;;;;;;;1.75;1.75;;;;;19.23;36.48;98079.63;4994619;28;8940;-42
2021/05/22 06:25:09;;;;;;;;;1.00;1.00;;;;;19.51;35.02;98077.75;4993375;28;11650;-42
2021/05/22 06:27:35;;;;;;;;;3.00;3.00;;;;;19.59;34.54;98085.69;4992993;28;8887;-42
2021/05/22 06:30:00;;;;;;;;;2.00;2.00;;;;;19.70;34.42;98074.13;4997204;28;8805;-42
2021/05/22 06:32:26;;;;;;;;;2.00;2.00;;;;;19.76;34.99;98076.22;4995364;28;8801;-42
2021/05/22 06:34:51;;;;;;;;;2.00;2.00;;;;;19.70;35.59;98071.41;4995833;28;8839;-42
2021/05/22 06:37:16;;;;;;;;;2.00;2.00;;;;;19.60;36.11;98073.59;4995482;28;8791;-41
2021/05/22 06:39:41;;;;;;;;;2.00;2.00;;;;;19.39;35.91;98073.25;4996105;28;8806;-42
2021/05/22 06:42:07;;;;;;;;;2.00;2.00;;;;;19.29;35.96;98074.66;4992639;28;8819;-41
2021/05/22 06:44:39;;;;;;;;;2.00;2.00;;;;;19.23;36.28;98079.63;4992948;28;8870;-42
2021/05/22 06:47:05;;;;;;;;;1.20;1.20;;;;;19.31;36.44;98075.06;4993811;28;8819;-42
2021/05/22 06:49:33;;;;;;;;;2.00;2.00;;;;;19.54;34.74;98074.28;4993948;28;8953;-42
2021/05/22 06:52:00;;;;;;;;;2.00;2.00;;;;;19.57;34.46;98068.88;4995152;28;8846;-42
2021/05/22 06:54:26;;;;;;;;;2.40;2.00;;;;;19.67;34.92;98078.41;4993178;28;8800;-42
2021/05/22 06:56:51;;;;;;;;;2.00;2.00;;;;;19.70;35.50;98082.34;4993592;28;8873;-42
2021/05/22 06:59:16;;;;;;;;;2.00;2.00;;;;;19.66;36.01;98083.09;4994097;28;9524;-42
2021/05/22 07:01:42;;;;;;;;;2.00;2.00;;;;;19.51;35.55;98075.81;4995532;28;8827;-42
2021/05/22 07:04:07;;;;;;;;;2.00;2.00;;;;;19.34;36.00;98073.56;4993821;28;8870;-42
2021/05/22 07:06:32;;;;;;;;;2.00;2.00;;;;;19.24;36.22;98078.50;4996339;28;8881;-42
2021/05/22 07:08:58;;;;;;;;;2.25;2.25;;;;;19.19;36.45;98078.78;4995564;28;8858;-41
2021/05/22 07:11:24;;;;;;;;;2.25;2.25;;;;;19.33;36.01;98078.25;4994130;28;8882;-42
2021/05/22 07:13:50;;;;;;;;;1.80;1.80;;;;;19.48;34.65;98069.13;4993420;28;8794;-42
2021/05/22 07:16:17;;;;;;;;;1.80;1.80;;;;;19.60;34.42;98078.28;4994236;28;8823;-42
2021/05/22 07:18:42;;;;;;;;;2.00;2.00;;;;;19.58;34.99;98054.03;4998496;28;8832;-42
2021/05/22 07:21:08;;;;;;;;;2.00;2.00;;;;;19.36;35.43;98020.09;4996122;28;8800;-42
2021/05/22 07:23:34;;;;;;;;;2.00;2.00;;;;;19.64;36.07;98074.44;4997126;28;8955;-42
2021/05/22 07:25:59;;;;;;;;;2.00;2.00;;;;;19.27;35.65;98044.94;4994827;28;8936;-42
2021/05/22 07:28:25;;;;;;;;;2.00;2.00;;;;;19.34;35.85;98076.31;4995210;28;8861;-42
2021/05/22 07:30:50;;;;;;;;;2.00;2.00;;;;;19.27;36.23;98075.00;5000872;28;8823;-42
2021/05/22 07:33:17;;;;;;;;;2.00;2.00;;;;;19.21;36.25;98070.22;4995225;28;8808;-41
2021/05/22 07:35:42;;;;;;;;;2.80;2.60;;;;;19.32;36.31;98070.41;4996323;28;8815;-42
2021/05/22 07:38:07;;;;;;;;;2.00;2.00;;;;;19.51;34.79;98075.81;4992387;28;9536;-42
2021/05/22 07:40:33;;;;;;;;;1.00;1.00;;;;;19.59;34.25;98077.50;4995422;28;8764;-43
2021/05/22 07:42:58;;;;;;;;;2.00;2.00;;;;;19.74;34.77;98064.88;4997465;28;8811;-42
2021/05/22 07:45:24;;;;;;;;;2.00;2.00;;;;;19.73;35.38;98071.47;4993343;28;8788;-42
2021/05/22 07:47:49;;;;;;;;;1.00;1.00;;;;;19.55;36.00;98049.31;4995106;28;9489;-42
2021/05/22 07:50:15;;;;;;;;;2.00;2.00;;;;;19.49;35.83;98078.13;4993732;28;8768;-42
2021/05/22 07:52:40;;;;;;;;;2.00;2.00;;;;;19.19;36.17;98047.91;4996325;28;8814;-42
2021/05/22 07:55:11;;;;;;;;;2.00;2.00;;;;;19.21;36.30;98062.81;4998860;28;8813;-42
2021/05/22 07:57:37;;;;;;;;;2.00;2.00;;;;;19.16;36.34;98065.84;4991984;28;8807;-42
2021/05/22 08:00:08;;;;;;;;;2.00;2.00;;;;;19.42;35.62;98064.34;4976668;28;8805;-42
2021/05/22 08:02:33;;;;;;;;;1.40;1.40;;;;;19.45;35.05;98050.72;4975748;28;8799;-42
2021/05/22 08:04:58;;;;;;;;;2.00;2.00;;;;;19.63;34.39;98070.16;4971149;28;8931;-42
2021/05/22 08:07:24;;;;;;;;;2.00;2.00;;;;;19.75;35.13;98063.72;4971911;28;8803;-42
2021/05/22 08:09:49;;;;;;;;;3.00;2.00;;;;;19.78;35.79;98067.66;4995531;28;8800;-42
2021/05/22 08:12:14;;;;;;;;;2.00;2.00;;;;;19.68;36.23;98069.84;4997531;28;8796;-42
2021/05/22 08:14:40;;;;;;;;;2.00;2.00;;;;;19.52;35.90;98065.66;4992295;28;8855;-41
2021/05/22 08:17:06;;;;;;;;;2.00;2.00;;;;;19.36;36.02;98069.31;4993941;28;8797;-42
2021/05/22 08:19:31;;;;;;;;;2.00;2.00;;;;;19.30;36.19;98068.81;4992654;28;9178;-42
2021/05/22 08:21:57;;;;;;;;;2.00;2.00;;;;;19.29;36.70;98067.25;4993049;28;8824;-42
2021/05/22 08:24:22;;;;;;;;;2.75;2.00;;;;;19.57;35.19;98065.34;4992417;28;9515;-42
2021/05/22 08:26:48;;;;;;;;;2.50;2.50;;;;;19.68;34.79;98063.56;4989390;28;8815;-42
2021/05/22 08:29:14;;;;;;;;;2.00;2.00;;;;;19.81;34.27;98067.72;4994069;28;8917;-43
2021/05/22 08:31:39;;;;;;;;;2.00;2.00;;;;;19.86;35.24;98064.66;4990326;28;8805;-43
2021/05/22 08:34:05;;;;;;;;;2.00;2.00;;;;;19.79;35.78;98061.03;4979818;28;8802;-43
2021/05/22 08:36:32;;;;;;;;;2.00;2.00;;;;;19.65;35.93;98062.34;4990707;28;8803;-43
2021/05/22 08:38:58;;;;;;;;;2.00;2.00;;;;;19.39;36.00;98067.78;4996806;28;8799;-42
2021/05/22 08:41:24;;;;;;;;;2.00;2.00;;;;;19.17;36.19;98047.50;4996430;28;8846;-42
2021/05/22 08:43:49;;;;;;;;;1.40;1.40;;;;;19.09;36.25;98046.59;4995157;28;8785;-43
2021/05/22 08:46:18;;;;;;;;;2.00;2.00;;;;;19.28;36.81;98062.16;4998499;28;8846;-42
2021/05/22 08:48:47;;;;;;;;;1.80;1.80;;;;;19.92;34.76;98064.34;4991003;28;9766;-46
2021/05/22 08:51:13;;;;;;;;;2.00;2.00;;;;;20.08;33.55;98042.28;4979106;28;8829;-45
2021/05/22 08:53:38;;;;;;;;;1.40;1.40;;;;;20.23;33.86;98042.09;4985666;28;8795;-45
2021/05/22 08:56:04;;;;;;;;;2.00;2.00;;;;;20.56;36.36;98061.66;4995033;28;9676;-45
2021/05/22 08:58:29;;;;;;;;;1.00;1.00;;;;;20.65;37.17;98064.13;4996127;28;8803;-45
2021/05/22 09:00:57;;;;;;;;;2.50;2.50;;;;;20.57;36.36;98047.59;4996766;28;8896;-45
2021/05/22 09:03:23;;;;;;;;;2.00;2.00;;;;;20.69;38.78;98057.53;4973495;28;8853;-43
2021/05/22 09:05:49;;;;;;;;;1.60;1.60;;;;;20.77;36.33;98056.47;4992075;28;8803;-42
2021/05/22 09:08:17;;;;;;;;;2.00;2.00;;;;;20.81;35.53;98051.03;4993623;28;8787;-41
2021/05/22 09:10:51;;;;;;;;;3.00;3.00;;;;;20.85;35.36;98051.84;4996954;28;8843;-46
2021/05/22 09:13:25;;;;;;;;;2.60;2.60;;;;;20.89;34.65;98052.66;4996016;28;8834;-46
2021/05/22 09:15:56;;;;;;;;;2.00;2.00;;;;;20.58;33.90;97997.13;4997816;28;8843;-45
2021/05/22 09:18:23;;;;;;;;;1.80;1.80;;;;;21.00;34.78;98047.28;4995665;28;8843;-46
2021/05/22 09:20:58;;;;;;;;;2.00;2.00;;;;;21.10;35.68;98043.09;4999654;28;8820;-46
2021/05/22 09:23:39;;;;;;;;;2.00;2.00;;;;;21.02;35.96;98038.69;4996022;28;8788;-42
2021/05/22 09:26:12;;;;;;;;;2.80;2.80;;;;;20.96;35.63;98035.50;4988602;28;8793;-42
2021/05/22 09:28:50;;;;;;;;;3.00;3.00;;;;;21.01;35.28;98043.38;4981462;28;9536;-45
2021/05/22 09:31:22;;;;;;;;;2.00;2.00;;;;;20.52;35.91;98027.97;4997907;28;8822;-39
2021/05/22 09:33:47;;;;;;;;;2.00;2.00;;;;;19.82;37.52;98043.88;4995686;28;8784;-40
2021/05/22 09:36:15;;;;;;;;;2.75;2.00;;;;;19.53;37.98;98048.88;4998566;28;8800;-39
2021/05/22 09:38:52;;;;;;;;;2.60;2.60;;;;;19.38;38.69;98093.53;4995250;28;11037;-40
2021/05/22 09:41:24;;;;;;;;;1.80;1.80;;;;;19.26;38.77;98051.56;4995726;28;8877;-39
2021/05/22 09:44:05;;;;;;;;;2.80;2.80;;;;;19.23;38.75;98049.56;4994985;28;8803;-39
2021/05/22 09:46:31;;;;;;;;;2.00;2.00;;;;;19.21;38.78;98053.84;4994175;28;8981;-39
2021/05/22 09:49:29;;;;;;;;;2.00;2.00;;;;;19.72;37.17;98045.28;4996904;28;8986;-43
2021/05/22 09:52:12;;;;;;;;;3.00;3.00;;;;;21.45;32.25;98039.09;4990800;28;8792;-43
2021/05/22 09:54:38;;;;;;;;;2.40;2.00;;;;;22.04;30.89;98039.91;4996944;28;8836;-43
2021/05/22 09:57:03;;;;;;;;;2.00;2.00;;;;;22.22;30.16;98047.44;4994215;28;8789;-42
2021/05/22 09:59:28;;;;;;;;;3.00;2.25;;;;;22.31;29.44;98032.22;4993771;28;8796;-41
2021/05/22 10:01:54;;;;;;;;;2.00;2.00;;;;;22.31;29.09;98028.69;4991355;28;8788;-43
2021/05/22 10:04:21;;;;;;;;;3.00;3.00;;;;;22.47;28.92;98051.13;4991320;28;8826;-43
2021/05/22 10:06:47;;;;;;;;;2.60;2.60;;;;;22.47;28.70;98051.13;4993333;28;8915;-44
2021/05/22 10:09:20;;;;;;;;;2.00;2.00;;;;;22.44;28.79;98053.84;4989329;28;8795;-44
2021/05/22 10:12:06;;;;;;;;;2.20;2.20;;;;;22.57;28.09;98060.59;4990526;28;9551;-48
2021/05/22 10:14:40;;;;;;;;;1.00;1.00;;;;;22.42;28.27;98064.44;4994639;28;8828;-48
2021/05/22 10:17:07;;;;;;;;;2.00;2.00;;;;;22.33;28.33;98053.03;4996018;28;8895;-48
2021/05/22 10:19:34;;;;;;;;;2.00;2.00;;;;;22.31;28.07;98056.94;4994042;28;8851;-48
2021/05/22 10:22:01;;;;;;;;;2.00;2.00;;;;;22.59;27.55;98055.47;4991397;28;8843;-40
2021/05/22 10:24:27;;;;;;;;;2.00;2.00;;;;;22.71;27.44;98050.78;4990192;28;8800;-43
2021/05/22 10:26:54;;;;;;;;;2.20;2.20;;;;;22.80;27.08;98051.25;4989167;28;8850;-42
2021/05/22 10:29:21;;;;;;;;;2.00;2.00;;;;;22.64;27.28;98052.38;4995275;28;8939;-48
2021/05/22 10:31:48;;;;;;;;;2.00;2.00;;;;;22.65;27.14;98053.91;4989969;28;8858;-48
2021/05/22 10:34:18;;;;;;;;;1.00;1.00;;;;;22.69;27.06;98056.69;4990131;28;8828;-47
2021/05/22 10:36:53;;;;;;;;;1.00;1.00;;;;;22.78;26.85;98056.31;4992643;28;8827;-46
2021/05/22 10:39:39;;;;;;;;;2.00;2.00;;;;;22.78;26.71;98057.13;4993266;28;8804;-49
2021/05/22 10:42:20;;;;;;;;;2.00;2.00;;;;;22.87;26.31;98067.75;4991087;28;8812;-47
2021/05/22 10:44:46;;;;;;;;;1.20;1.20;;;;;22.82;26.32;98052.41;4994077;28;8820;-47
2021/05/22 10:47:16;;;;;;;;;2.00;2.00;;;;;23.20;25.99;98068.59;4988605;28;8937;-43
2021/05/22 10:49:55;;;;;;;;;1.60;1.60;;;;;22.84;26.00;98010.78;4988594;28;8954;-43
2021/05/22 10:52:25;;;;;;;;;1.80;1.80;;;;;23.19;26.05;98084.34;4990042;28;8970;-43
2021/05/22 10:54:58;;;;;;;;;1.20;1.20;;;;;23.24;25.87;98091.41;4991726;28;8877;-43
2021/05/22 10:57:24;;;;;;;;;2.00;2.00;;;;;23.20;25.82;98088.66;4992032;28;8789;-45
2021/05/22 11:00:14;;;;;;;;;1.00;1.00;;;;;23.25;25.71;98090.22;4993489;28;8893;-46
2021/05/22 11:02:46;;;;;;;;;2.20;2.20;;;;;23.27;25.45;98089.84;4992252;28;8849;-48
2021/05/22 11:05:24;;;;;;;;;2.80;2.40;;;;;23.34;25.30;98084.34;4993378;28;8828;-48
2021/05/22 11:08:12;;;;;;;;;1.00;1.00;;;;;23.36;25.14;98080.03;4989677;28;8791;-45
2021/05/22 11:10:49;;;;;;;;;2.00;2.00;;;;;23.51;25.12;98096.56;4991769;28;8776;-41
2021/05/22 11:13:20;;;;;;;;;1.00;1.00;;;;;23.66;24.94;98081.63;4996536;28;8831;-42
2021/05/22 11:15:57;;;;;;;;;1.00;1.00;;;;;23.87;24.70;98080.03;4998164;28;8962;-45
2021/05/22 11:18:25;;;;;;;;;1.00;1.00;;;;;23.37;25.03;98042.28;4992786;28;8909;-43
2021/05/22 11:21:19;;;;;;;;;1.00;1.00;;;;;23.63;24.97;98090.66;4992115;28;8796;-42
2021/05/22 11:24:05;;;;;;;;;1.40;1.40;;;;;23.81;24.54;98112.69;5003910;28;8903;-41
2021/05/22 11:26:42;;;;;;;;;1.00;1.00;;;;;23.70;24.62;98096.16;4992003;28;8768;-47
2021/05/22 11:29:08;;;;;;;;;1.20;1.20;;;;;23.78;24.68;98094.97;4994473;28;8788;-43
2021/05/22 11:31:33;;;;;;;;;1.00;1.00;;;;;23.92;24.75;98085.16;4992132;28;8804;-45
2021/05/22 11:34:23;;;;;;;;;1.75;1.75;;;;;23.78;24.78;98085.91;4992738;28;8830;-47
2021/05/22 11:37:09;;;;;;;;;1.00;1.00;;;;;23.20;25.86;98085.91;4993081;28;8784;-48
2021/05/22 11:39:39;;;;;;;;;1.00;1.00;;;;;22.99;26.70;98091.31;4985690;28;8810;-44
2021/05/22 11:42:31;;;;;;;;;2.00;1.00;;;;;22.96;27.27;98095.66;4989665;28;8918;-44
2021/05/22 11:44:58;;;;;;;;;1.20;1.20;;;;;22.76;28.20;98103.44;4993174;28;8931;-44